Time;durP1;ratioP1;P1;durP2;ratioP2;P2;SDS_P1;SDS_P2;PMS_P1;PMS_P2;Temp;Humidity;BMP_temperature;BMP_pressure;BME280_temperature;BME280_humidity;BME280_pressure;Samples;Min_cycle;Max_cycle;Signal;HPM_P1;HPM_P2
2022/10/05 00:01:21;;;;;;;4.33;3.30;;;15.60;91.70;;;16.01;57.98;99194.75;4970080;28;123941;-74
2022/10/05 00:03:47;;;;;;;4.83;3.20;;;15.60;91.70;;;15.98;58.19;99202.94;4974659;28;123742;-75
2022/10/05 00:06:14;;;;;;;4.17;2.97;;;15.60;91.70;;;15.95;57.96;99196.06;4983235;28;119067;-74
2022/10/05 00:08:42;;;;;;;6.40;3.50;;;15.60;91.80;;;15.93;58.07;99198.38;4983064;28;119222;-79
2022/10/05 00:11:13;;;;;;;5.70;3.40;;;15.50;91.80;;;15.92;57.96;99198.72;4946295;28;123221;-74
2022/10/05 00:13:41;;;;;;;7.20;3.70;;;15.50;91.90;;;15.89;58.10;99195.47;4961046;28;123747;-75
2022/10/05 00:16:17;;;;;;;6.67;3.50;;;15.50;91.90;;;15.91;58.27;99203.50;4985033;28;119037;-75
2022/10/05 00:18:52;;;;;;;4.47;3.37;;;15.50;92.00;;;15.89;58.48;99203.00;4969374;28;119763;-75
2022/10/05 00:21:23;;;;;;;4.90;3.43;;;15.40;92.00;;;15.86;58.25;99196.13;4981721;28;123356;-73
2022/10/05 00:23:51;;;;;;;4.53;3.07;;;15.40;92.00;;;15.85;58.38;99191.72;4967252;28;124068;-74
2022/10/05 00:26:26;;;;;;;7.10;3.03;;;15.50;92.10;;;15.84;58.36;99201.22;4953068;28;118292;-74
2022/10/05 00:28:53;;;;;;;5.60;3.73;;;15.40;92.10;;;15.82;58.63;99202.72;4982554;28;119021;-74
2022/10/05 00:31:24;;;;;;;5.43;3.40;;;15.40;92.10;;;15.81;58.49;99196.34;4983685;28;124325;-75
2022/10/05 00:33:51;;;;;;;3.40;3.07;;;15.40;92.20;;;15.79;58.41;99187.50;4974364;28;124333;-75
2022/10/05 00:36:18;;;;;;;7.90;3.83;;;15.40;92.20;;;15.78;58.52;99197.00;4968327;28;120934;-77
2022/10/05 00:38:44;;;;;;;5.63;3.40;;;15.40;92.20;;;15.75;58.51;99192.13;4967473;28;119807;-75
2022/10/05 00:41:22;;;;;;;4.43;3.30;;;15.30;92.20;;;15.72;58.64;99187.22;4977188;28;124050;-74
2022/10/05 00:44:17;;;;;;;4.83;3.87;;;15.30;92.20;;;15.67;58.46;99191.00;4967417;28;123793;-75
2022/10/05 00:47:23;;;;;;;8.70;4.00;;;15.30;92.20;;;15.65;58.57;99195.25;4964061;28;119226;-75
2022/10/05 00:50:35;;;;;;;5.83;4.13;;;15.20;92.20;;;15.60;58.56;99189.88;4975101;28;118653;-75
2022/10/05 00:53:23;;;;;;;6.27;3.70;;;15.20;92.20;;;15.54;58.63;99186.47;4967439;28;124752;-75
2022/10/05 00:56:08;;;;;;;4.33;3.23;;;15.10;92.30;;;15.51;58.70;99191.91;4969825;28;124298;-75
2022/10/05 00:59:24;;;;;;;7.37;3.50;;;15.10;92.30;;;15.46;58.85;99179.78;4972177;28;119224;-74
2022/10/05 01:02:09;;;;;;;5.80;3.50;;;15.10;92.40;;;15.46;59.02;99182.56;4983333;28;119286;-74
2022/10/05 01:04:49;;;;;;;7.07;3.60;;;15.00;92.40;;;15.45;58.95;99196.84;4981128;28;123635;-74
2022/10/05 01:08:18;;;;;;;5.87;3.93;;;15.00;92.50;;;15.43;58.97;99197.19;4970544;28;123994;-75
2022/10/05 01:11:17;;;;;;;4.43;2.90;;;15.00;92.50;;;15.41;59.07;99193.09;4977003;28;120070;-74
2022/10/05 01:14:15;;;;;;;4.57;3.50;;;15.00;92.60;;;15.37;59.08;99190.16;4964882;28;118940;-75
2022/10/05 01:17:11;;;;;;;4.93;3.73;;;15.00;92.60;;;15.34;59.14;99192.78;4970603;28;122894;-75
2022/10/05 01:19:44;;;;;;;5.40;3.50;;;14.90;92.50;;;15.32;59.21;99195.94;4981312;28;122802;-75
2022/10/05 01:22:40;;;;;;;4.73;3.20;;;14.90;92.60;;;15.32;59.07;99195.94;4986355;28;119292;-76
2022/10/05 01:25:15;;;;;;;5.27;4.20;;;14.90;92.60;;;15.32;59.32;99189.53;4983280;28;120357;-74
2022/10/05 01:27:45;;;;;;;5.03;3.70;;;14.90;92.60;;;15.30;59.52;99186.28;4979862;28;124105;-75
2022/10/05 01:30:21;;;;;;;4.93;3.50;;;15.70;93.00;;;15.30;59.25;99181.50;4972964;28;123902;-75
2022/10/05 01:33:12;;;;;;;13.90;4.50;;;14.90;92.70;;;15.29;59.48;99174.31;4973063;28;120310;-75
2022/10/05 01:36:34;;;;;;;5.80;3.87;;;14.90;92.70;;;15.24;59.29;99178.09;4983615;28;120354;-74
2022/10/05 01:39:24;;;;;;;4.20;3.30;;;14.80;92.70;;;15.22;59.32;99174.03;4971200;28;124038;-75
2022/10/05 01:42:00;;;;;;;5.60;3.73;;;14.80;92.70;;;15.22;59.31;99176.81;4979057;28;124439;-74
2022/10/05 01:44:51;;;;;;;6.20;4.00;;;14.80;92.70;;;15.21;59.54;99177.97;4969648;28;119205;-75
2022/10/05 01:47:50;;;;;;;7.90;4.63;;;14.80;92.80;;;15.19;59.36;99174.69;4980930;28;119340;-75
2022/10/05 01:50:50;;;;;;;8.77;3.87;;;14.80;92.80;;;15.17;59.36;99183.38;4979541;28;124278;-74
2022/10/05 01:53:32;;;;;;;5.63;4.47;;;14.80;92.80;;;15.18;59.49;99179.44;4969973;28;124054;-74
2022/10/05 01:56:27;;;;;;;6.10;4.30;;;14.90;92.90;;;15.16;59.39;99169.81;4961045;28;118572;-75
2022/10/05 01:59:06;;;;;;;8.97;4.77;;;14.80;92.80;;;15.12;59.40;99168.81;4978881;28;119395;-76
2022/10/05 02:02:01;;;;;;;8.40;3.60;;;14.80;92.90;;;15.06;59.52;99159.03;4967892;28;123164;-75
2022/10/05 02:04:50;;;;;;;5.67;4.00;;;14.70;92.90;;;14.97;59.46;99154.31;4986441;28;123245;-75
2022/10/05 02:07:59;;;;;;;5.30;3.70;;;14.50;92.90;;;14.93;59.58;99158.91;4983175;28;119214;-75
2022/10/05 02:10:40;;;;;;;5.33;3.70;;;14.50;92.90;;;14.92;59.64;99157.28;4980591;28;119099;-74
2022/10/05 02:13:29;;;;;;;5.00;3.90;;;14.50;92.90;;;14.89;59.60;99166.28;4973969;28;125105;-75
2022/10/05 02:16:03;;;;;;;10.20;3.37;;;14.50;93.00;;;14.89;59.85;99168.25;4980451;28;123706;-76
2022/10/05 02:18:38;;;;;;;4.80;3.93;;;14.50;93.00;;;14.87;59.90;99162.22;4969646;28;119156;-76
2022/10/05 02:21:06;;;;;;;4.60;3.73;;;14.40;93.00;;;14.85;59.98;99161.72;4983876;28;119522;-74
2022/10/05 02:23:38;;;;;;;4.77;3.33;;;14.40;93.00;;;14.83;59.79;99164.84;4980227;28;124160;-74
2022/10/05 02:26:07;;;;;;;7.70;4.07;;;14.40;93.00;;;14.80;59.66;99157.13;4970414;28;123641;-75
2022/10/05 02:28:55;;;;;;;4.07;3.60;;;14.40;93.00;;;14.79;59.69;99158.28;4982105;28;119760;-75
2022/10/05 02:32:06;;;;;;;5.47;3.87;;;14.30;93.00;;;14.77;59.90;99152.25;4983882;28;119734;-74
2022/10/05 02:34:39;;;;;;;4.53;3.60;;;14.30;93.00;;;14.75;59.96;99151.78;4986111;28;124717;-74
2022/10/05 02:37:27;;;;;;;7.03;3.97;;;14.40;93.10;;;14.74;60.14;99144.56;4969783;28;122775;-74
2022/10/05 02:40:45;;;;;;;4.00;3.37;;;14.30;93.10;;;14.69;60.06;99141.97;4969564;28;119448;-75
2022/10/05 02:43:48;;;;;;;4.30;3.40;;;14.30;93.10;;;14.67;60.04;99147.03;4979422;28;117955;-74
2022/10/05 02:46:48;;;;;;;5.57;3.77;;;14.20;93.10;;;14.64;60.04;99142.13;4968893;28;122865;-74
2022/10/05 02:50:01;;;;;;;5.27;3.73;;;14.20;93.10;;;14.62;60.20;99138.88;4981114;28;123620;-74
2022/10/05 02:52:42;;;;;;;5.50;3.60;;;14.20;93.20;;;14.62;60.19;99150.00;4973862;28;119320;-74
2022/10/05 02:55:33;;;;;;;5.13;3.70;;;14.20;93.20;;;14.60;60.13;99152.31;4983085;28;119164;-75
2022/10/05 02:58:13;;;;;;;4.80;3.60;;;14.20;93.30;;;14.61;60.30;99151.13;4975235;28;124245;-75
2022/10/05 03:00:47;;;;;;;5.90;3.73;;;14.20;93.60;;;14.60;60.25;99158.66;4972836;28;124102;-74
2022/10/05 03:03:34;;;;;;;5.40;3.87;;;14.50;93.50;;;14.61;60.41;99159.47;4982221;28;119078;-75
2022/10/05 03:06:22;;;;;;;4.53;3.57;;;14.30;93.40;;;14.60;60.43;99163.44;4981350;28;119124;-75
2022/10/05 03:08:51;;;;;;;6.87;3.77;;;14.20;93.40;;;14.58;60.43;99172.09;4959499;28;123021;-75
2022/10/05 03:11:42;;;;;;;5.00;3.37;;;14.10;93.30;;;14.57;60.56;99171.28;4986038;28;123518;-74
2022/10/05 03:14:12;;;;;;;4.33;3.43;;;14.20;93.40;;;14.56;60.40;99166.88;4981375;28;119216;-76
2022/10/05 03:17:03;;;;;;;6.07;3.97;;;14.10;93.40;;;14.55;60.23;99156.88;4987900;28;117921;-75
2022/10/05 03:20:11;;;;;;;4.83;3.77;;;14.10;93.40;;;14.53;60.50;99169.47;4989644;28;123739;-74
2022/10/05 03:23:00;;;;;;;4.53;3.90;;;14.10;93.40;;;14.51;60.46;99155.06;4967827;28;122855;-74
2022/10/05 03:25:38;;;;;;;4.40;3.60;;;14.00;93.40;;;14.49;60.56;99157.38;4974257;28;120803;-75
2022/10/05 03:28:25;;;;;;;3.93;3.53;;;14.10;93.40;;;14.47;60.68;99149.34;4984862;28;119603;-75
2022/10/05 03:31:04;;;;;;;4.23;3.30;;;14.10;93.40;;;14.47;60.11;99145.75;4989539;28;124152;-75
2022/10/05 03:34:10;;;;;;;5.27;4.10;;;14.00;93.40;;;14.43;60.28;99139.22;4981396;28;124105;-76
2022/10/05 03:37:03;;;;;;;8.03;4.03;;;14.00;93.30;;;14.40;60.28;99132.38;4982288;28;119094;-75
2022/10/05 03:39:40;;;;;;;7.17;4.43;;;14.00;93.30;;;14.37;60.42;99124.66;4982909;28;119190;-74
2022/10/05 03:42:52;;;;;;;7.30;4.33;;;14.00;93.30;;;14.30;60.54;99118.81;4973537;28;124230;-75
2022/10/05 03:45:37;;;;;;;7.33;3.53;;;13.90;93.30;;;14.26;60.37;99117.81;4986057;28;124365;-74
2022/10/05 03:48:49;;;;;;;6.27;4.10;;;13.80;93.30;;;14.20;60.75;99119.94;4991275;28;119479;-76
2022/10/05 03:51:34;;;;;;;6.07;3.47;;;15.30;94.10;;;14.21;60.71;99121.59;4987076;28;119554;-75
2022/10/05 03:54:24;;;;;;;4.50;3.80;;;13.80;93.50;;;14.20;60.73;99122.72;4959089;28;123781;-75
2022/10/05 03:57:09;;;;;;;4.80;3.43;;;13.90;93.60;;;14.19;60.77;99125.84;4982168;28;123511;-75
2022/10/05 03:59:54;;;;;;;4.67;3.40;;;13.90;93.60;;;14.13;60.81;99119.63;4987091;28;118502;-75
2022/10/05 04:02:30;;;;;;;4.33;3.53;;;13.70;93.60;;;14.08;60.99;99115.06;4988860;28;118486;-74
2022/10/05 04:05:08;;;;;;;5.13;4.33;;;13.60;93.60;;;14.02;61.19;99118.31;4987365;28;124441;-74
2022/10/05 04:07:42;;;;;;;4.70;4.00;;;13.50;93.70;;;13.97;61.25;99119.31;4983596;28;123952;-74
2022/10/05 04:10:20;;;;;;;6.17;3.77;;;13.50;93.80;;;13.97;61.34;99108.22;4983754;28;118615;-74
2022/10/05 04:13:04;;;;;;;7.00;4.27;;;13.50;93.90;;;13.98;61.37;99112.63;4967874;28;118829;-74
2022/10/05 04:15:42;;;;;;;6.00;3.90;;;13.50;93.90;;;14.01;61.51;99111.94;4973687;28;124116;-75
2022/10/05 04:18:25;;;;;;;5.50;4.07;;;13.50;93.90;;;14.01;61.45;99113.91;4976719;28;123567;-74
2022/10/05 04:21:19;;;;;;;7.53;4.10;;;13.60;94.00;;;14.02;61.41;99110.78;4987456;28;120745;-75
2022/10/05 04:24:37;;;;;;;5.60;4.00;;;13.50;94.00;;;14.00;61.61;99102.00;4983314;28;119983;-74
2022/10/05 04:27:15;;;;;;;4.30;3.63;;;13.50;94.00;;;14.01;61.55;99108.38;4988631;28;124848;-75
2022/10/05 04:30:06;;;;;;;7.80;4.30;;;13.50;94.00;;;14.00;61.55;99112.31;4983150;28;124191;-74
2022/10/05 04:32:41;;;;;;;4.03;3.50;;;13.50;94.10;;;14.00;61.55;99101.19;4984883;28;119358;-74
2022/10/05 04:35:49;;;;;;;5.40;4.20;;;13.50;94.10;;;13.99;61.50;99100.34;4986057;28;118832;-74
2022/10/05 04:38:48;;;;;;;12.00;5.03;;;13.50;94.10;;;13.98;61.53;99095.94;4974823;28;123956;-74
2022/10/05 04:41:34;;;;;;;9.63;4.20;;;14.10;94.30;;;14.00;61.53;99104.78;4970009;28;123930;-75
2022/10/05 04:44:23;;;;;;;7.20;4.03;;;14.90;94.70;;;13.97;61.60;99102.66;4980412;28;119405;-75
2022/10/05 04:47:04;;;;;;;7.80;4.70;;;13.50;94.10;;;13.95;61.66;99104.13;4981889;28;119188;-74
2022/10/05 04:50:08;;;;;;;5.90;3.67;;;13.50;94.10;;;13.91;61.45;99110.31;4984479;28;124137;-75
2022/10/05 04:52:58;;;;;;;7.03;4.30;;;13.40;94.00;;;13.87;61.66;99103.78;4967073;28;123876;-74
2022/10/05 04:55:50;;;;;;;4.60;3.77;;;13.40;94.10;;;13.86;61.62;99112.44;4973683;28;119135;-73
2022/10/05 04:59:04;;;;;;;8.37;4.57;;;13.40;94.10;;;13.86;61.77;99118.00;4976337;28;118897;-73
2022/10/05 05:02:03;;;;;;;5.40;4.10;;;13.40;94.10;;;13.84;61.75;99123.09;4977961;28;124425;-74
2022/10/05 05:05:01;;;;;;;4.43;3.83;;;13.40;94.10;;;13.83;61.88;99126.97;4983596;28;124036;-72
2022/10/05 05:07:47;;;;;;;5.40;3.90;;;13.40;94.20;;;13.83;61.78;99130.56;4965699;28;118890;-73
2022/10/05 05:10:38;;;;;;;8.00;4.70;;;13.40;94.20;;;13.84;62.05;99134.19;4967665;28;117848;-72
2022/10/05 05:13:27;;;;;;;5.33;4.07;;;13.40;94.20;;;13.82;61.91;99133.69;4980123;28;124056;-75
2022/10/05 05:16:05;;;;;;;7.27;4.77;;;13.30;94.20;;;13.82;61.87;99139.25;4976085;28;124106;-73
2022/10/05 05:19:19;;;;;;;5.83;4.60;;;13.30;94.20;;;13.77;61.97;99134.66;4981398;28;120591;-74
2022/10/05 05:21:59;;;;;;;7.17;4.47;;;13.30;94.30;;;13.73;61.96;99142.03;4957874;28;120566;-73
2022/10/05 05:24:49;;;;;;;4.77;4.07;;;13.30;94.30;;;13.72;62.04;99150.66;4954203;28;123765;-73
2022/10/05 05:27:53;;;;;;;7.33;4.90;;;13.40;94.40;;;13.72;61.91;99151.47;4940433;28;123623;-73
2022/10/05 05:31:00;;;;;;;5.23;4.27;;;13.30;94.30;;;13.68;62.21;99154.09;4962858;28;119363;-73
2022/10/05 05:33:53;;;;;;;7.20;4.70;;;13.20;94.50;;;13.68;62.52;99151.31;4945515;28;119021;-73
2022/10/05 05:36:46;;;;;;;7.23;4.30;;;13.20;94.60;;;13.68;62.28;99162.44;4954574;28;125795;-74
2022/10/05 05:39:28;;;;;;;9.53;4.03;;;13.20;94.60;;;13.66;62.31;99166.66;4943525;28;123064;-73
2022/10/05 05:42:28;;;;;;;6.03;4.67;;;13.10;94.50;;;13.59;62.01;99153.25;4944220;28;120359;-73
2022/10/05 05:44:59;;;;;;;8.20;4.07;;;13.10;94.50;;;13.52;61.99;99166.81;4938672;28;118465;-72
2022/10/05 05:47:36;;;;;;;7.67;4.07;;;13.10;94.50;;;13.49;62.17;99159.13;4945058;28;123049;-72
2022/10/05 05:50:23;;;;;;;6.37;4.57;;;13.00;94.40;;;13.46;62.12;99160.59;4945154;28;124394;-74
2022/10/05 05:52:57;;;;;;;5.60;3.90;;;13.00;94.50;;;13.46;62.31;99159.78;4950618;28;118368;-73
2022/10/05 05:55:48;;;;;;;10.43;4.90;;;13.00;94.50;;;13.48;62.30;99169.38;4945824;28;119348;-72
2022/10/05 05:58:56;;;;;;;8.00;4.70;;;13.00;94.50;;;13.48;62.17;99169.38;4955283;28;124299;-73
2022/10/05 06:01:28;;;;;;;10.03;5.23;;;13.00;94.50;;;13.48;62.14;99176.91;4977399;28;124294;-75
2022/10/05 06:04:03;;;;;;;9.77;4.60;;;13.50;94.80;;;13.46;62.37;99176.44;4974957;28;119825;-73
2022/10/05 06:06:34;;;;;;;9.50;5.93;;;12.90;94.60;;;13.42;62.37;99180.97;4960589;28;119115;-74
2022/10/05 06:09:27;;;;;;;9.00;6.00;;;12.80;94.60;;;13.40;62.43;99180.47;4974505;28;123937;-73
2022/10/05 06:12:01;;;;;;;9.40;4.90;;;12.80;94.70;;;13.40;62.41;99181.28;4961156;28;122586;-74
2022/10/05 06:14:49;;;;;;;8.27;5.90;;;12.80;94.80;;;13.31;62.31;99188.78;4967805;28;120175;-74
2022/10/05 06:17:51;;;;;;;10.67;6.07;;;12.70;94.80;;;13.20;62.66;99191.00;4964023;28;119805;-73
2022/10/05 06:20:39;;;;;;;7.70;5.53;;;12.80;94.90;;;13.19;62.61;99194.91;4916268;28;97691;-74
2022/10/05 06:23:23;;;;;;;5.97;4.83;;;12.70;95.00;;;13.20;62.87;99207.63;4980402;28;124435;-73
2022/10/05 06:26:14;;;;;;;8.80;5.50;;;12.60;95.00;;;13.24;62.89;99213.34;4970749;28;119313;-73
2022/10/05 06:28:41;;;;;;;7.20;4.33;;;12.60;95.10;;;13.33;62.87;99207.91;4974778;28;119468;-74
2022/10/05 06:32:10;;;;;;;7.50;5.20;;;12.70;95.10;;;13.43;62.62;99210.34;4982999;28;123564;-74
2022/10/05 06:35:04;;;;;;;7.77;5.93;;;12.80;95.10;;;13.52;62.58;99213.19;4964707;28;123827;-73
2022/10/05 06:38:16;;;;;;;7.00;4.87;;;12.90;95.10;;;13.53;62.64;99220.38;4964519;28;119293;-74
2022/10/05 06:41:28;;;;;;;9.07;5.83;;;12.70;95.00;;;13.51;62.92;99220.66;4980740;28;119021;-74
2022/10/05 06:44:23;;;;;;;8.37;5.70;;;12.90;95.50;;;13.52;62.68;99222.31;4966324;28;122979;-76
2022/10/05 06:47:28;;;;;;;8.63;5.10;;;12.90;95.20;;;13.55;62.62;99224.47;4983576;28;124461;-74
2022/10/05 06:50:08;;;;;;;9.93;5.07;;;12.90;95.20;;;13.59;62.41;99228.22;4986162;28;120089;-74
2022/10/05 06:53:24;;;;;;;8.90;6.10;;;13.30;95.40;;;13.61;62.50;99223.16;4985541;28;119235;-74
2022/10/05 06:56:04;;;;;;;6.87;4.80;;;12.90;95.20;;;13.68;62.56;99226.28;4977762;28;124971;-73
2022/10/05 06:59:04;;;;;;;8.73;5.40;;;13.00;95.30;;;13.76;62.56;99223.88;4971815;28;122938;-75
2022/10/05 07:01:47;;;;;;;7.93;6.07;;;13.00;95.30;;;13.75;62.60;99225.00;4987367;28;118586;-80
2022/10/05 07:04:26;;;;;;;10.00;6.20;;;13.00;95.40;;;13.80;62.67;99225.66;4975852;28;119180;-75
2022/10/05 07:07:00;;;;;;;7.77;4.80;;;13.10;95.40;;;13.89;62.42;99228.47;4971609;28;123277;-74
2022/10/05 07:09:55;;;;;;;8.53;5.30;;;13.20;95.30;;;14.00;62.37;99232.56;4985584;28;124107;-76
2022/10/05 07:12:53;;;;;;;10.37;4.50;;;13.20;95.30;;;14.10;62.03;99232.25;4989938;28;120358;-75
2022/10/05 07:15:57;;;;;;;6.20;4.80;;;13.40;95.30;;;14.23;62.04;99246.31;4986715;28;119936;-75
2022/10/05 07:19:05;;;;;;;8.30;5.07;;;13.50;95.20;;;14.37;61.66;99235.84;4962826;28;123635;-74
2022/10/05 07:21:57;;;;;;;5.63;4.40;;;13.70;95.10;;;14.49;61.40;99236.03;4983139;28;123271;-75
2022/10/05 07:24:33;;;;;;;6.50;4.60;;;13.80;95.00;;;14.61;61.16;99237.34;4972420;28;119599;-76
2022/10/05 07:27:12;;;;;;;8.07;4.80;;;13.90;94.90;;;14.70;60.94;99236.22;4986552;28;119715;-75
2022/10/05 07:30:05;;;;;;;10.53;5.07;;;14.00;94.80;;;14.77;60.58;99238.47;4974637;28;123467;-74
2022/10/05 07:33:14;;;;;;;7.83;5.33;;;14.00;94.70;;;14.73;60.43;99235.53;4988265;28;123124;-75
2022/10/05 07:39:03;;;;;;;7.30;4.97;;;14.10;94.80;;;14.89;60.30;99237.81;4981188;28;120004;-73
2022/10/05 07:41:50;;;;;;;6.90;4.80;;;14.20;94.40;;;14.96;60.00;99243.66;4969932;28;124092;-74
2022/10/05 07:45:06;;;;;;;9.60;4.20;;;14.40;94.40;;;15.01;59.91;99246.28;4978099;28;123617;-76
2022/10/05 07:47:50;;;;;;;8.73;5.60;;;14.30;94.20;;;15.04;59.76;99256.75;4983574;28;119103;-75
2022/10/05 07:50:32;;;;;;;10.00;5.97;;;14.30;94.10;;;15.02;59.31;99253.50;4976916;28;119613;-74
2022/10/05 07:53:24;;;;;;;7.70;5.17;;;14.30;93.90;;;14.98;59.38;99253.31;4970330;28;123987;-73
2022/10/05 07:56:00;;;;;;;7.53;4.83;;;14.30;93.90;;;15.00;59.83;99255.78;4978698;28;123836;-73
2022/10/05 07:58:43;;;;;;;7.07;4.93;;;14.30;93.90;;;15.05;59.32;99260.38;4982453;28;119728;-74
2022/10/05 08:01:28;;;;;;;7.90;5.73;;;14.30;93.90;;;15.11;59.42;99261.81;4985588;28;119485;-73
2022/10/05 08:04:29;;;;;;;7.80;5.63;;;14.40;93.90;;;15.14;59.40;99261.97;4981383;28;123352;-73
2022/10/05 08:07:01;;;;;;;14.17;5.73;;;14.40;93.80;;;15.17;59.11;99260.50;4985889;28;125401;-73
2022/10/05 08:10:03;;;;;;;7.73;5.63;;;14.50;93.80;;;15.17;58.80;99254.91;4985410;28;120232;-74
2022/10/05 08:12:52;;;;;;;15.20;6.13;;;14.50;93.70;;;15.16;58.99;99248.53;4986746;28;120390;-73
2022/10/05 08:15:30;;;;;;;5.83;5.17;;;14.50;93.70;;;15.18;59.02;99256.56;4981052;28;125027;-73
2022/10/05 08:18:21;;;;;;;8.70;5.30;;;14.50;93.70;;;15.21;59.02;99255.91;4980068;28;123769;-73
2022/10/05 08:20:55;;;;;;;9.40;6.20;;;14.50;93.70;;;15.27;59.00;99253.75;4969683;28;119663;-73
2022/10/05 08:23:38;;;;;;;9.93;6.60;;;14.60;93.70;;;15.33;59.03;99253.22;4967946;28;118981;-75
2022/10/05 08:26:50;;;;;;;10.87;6.87;;;14.60;93.70;;;15.40;58.99;99253.53;4983029;28;124007;-75
2022/10/05 08:29:35;;;;;;;10.50;5.80;;;14.70;93.70;;;15.45;58.77;99247.78;4984023;28;124306;-73
2022/10/05 08:32:09;;;;;;;9.20;6.10;;;14.80;93.60;;;15.48;58.76;99246.31;4978960;28;119542;-73
2022/10/05 08:35:12;;;;;;;15.23;5.67;;;14.80;93.50;;;15.48;59.02;99248.28;4972281;28;118916;-74
2022/10/05 08:37:42;;;;;;;9.77;5.80;;;14.80;93.50;;;15.54;58.80;99238.56;4972114;28;123645;-73
2022/10/05 08:40:57;;;;;;;8.90;5.00;;;14.90;93.50;;;15.58;58.74;99231.16;4980921;28;123842;-74
2022/10/05 08:43:53;;;;;;;9.63;6.30;;;14.90;93.50;;;15.61;58.66;99227.75;4980111;28;119366;-74
2022/10/05 08:46:37;;;;;;;8.83;6.77;;;15.00;93.50;;;15.66;58.57;99227.53;4977471;28;119124;-74
2022/10/05 08:49:41;;;;;;;11.23;7.00;;;15.00;93.50;;;15.68;58.54;99231.63;4984812;28;124459;-74
2022/10/05 08:52:27;;;;;;;10.90;6.33;;;15.10;93.50;;;15.73;58.76;99222.28;4984392;28;124440;-75
2022/10/05 08:55:09;;;;;;;8.47;6.07;;;15.10;93.50;;;15.78;58.81;99229.63;4974530;28;119000;-74
2022/10/05 08:58:05;;;;;;;11.93;6.70;;;15.20;93.50;;;15.82;58.56;99228.59;4980820;28;118288;-74
2022/10/05 09:00:37;;;;;;;11.50;5.97;;;15.20;93.50;;;15.85;58.56;99221.53;4981466;28;124563;-74
2022/10/05 09:03:19;;;;;;;7.30;5.40;;;15.20;93.50;;;15.90;58.55;99227.78;4981793;28;123885;-73
2022/10/05 09:06:25;;;;;;;8.07;4.87;;;15.30;93.50;;;15.98;58.75;99217.69;4975861;28;119847;-74
2022/10/05 09:09:09;;;;;;;7.23;5.73;;;15.40;93.50;;;16.08;58.52;99222.06;4974029;28;119678;-73
2022/10/05 09:12:00;;;;;;;10.13;6.37;;;15.50;93.50;;;16.13;58.47;99221.88;4980432;28;123854;-73
2022/10/05 09:14:48;;;;;;;13.77;5.87;;;15.50;93.50;;;16.20;58.52;99222.16;4982392;28;123975;-73
2022/10/05 09:18:18;;;;;;;10.33;6.50;;;15.60;93.50;;;16.27;58.54;99208.47;4976817;28;119555;-74
2022/10/05 09:20:52;;;;;;;7.73;5.70;;;15.60;93.50;;;16.35;58.57;99213.16;4979349;28;120343;-73
2022/10/05 09:23:30;;;;;;;8.17;5.90;;;15.70;93.50;;;16.43;58.42;99205.88;4978457;28;124104;-72
2022/10/05 09:26:23;;;;;;;8.33;5.80;;;15.80;93.50;;;16.52;58.39;99214.16;4974830;28;122765;-74
2022/10/05 09:29:16;;;;;;;10.10;5.60;;;15.80;93.50;;;16.60;58.21;99204.88;4986095;28;119370;-73
2022/10/05 09:32:32;;;;;;;11.30;6.00;;;16.00;93.50;;;16.69;58.17;99199.25;4978893;28;118921;-74
2022/10/05 09:35:17;;;;;;;8.27;6.23;;;16.10;93.40;;;16.77;58.14;99209.53;4977984;28;123751;-71
2022/10/05 09:38:09;;;;;;;9.50;5.40;;;16.10;93.40;;;16.81;58.11;99204.06;4979741;28;124220;-73
2022/10/05 09:41:27;;;;;;;6.87;5.63;;;16.20;93.50;;;16.87;58.09;99197.09;4980030;28;119050;-71
2022/10/05 09:44:28;;;;;;;8.07;5.93;;;16.30;93.40;;;16.95;58.21;99198.97;4975988;28;119039;-73
2022/10/05 09:47:35;;;;;;;8.03;6.00;;;16.30;93.40;;;17.03;58.13;99194.47;4980466;28;124272;-73
2022/10/05 09:50:42;;;;;;;12.77;6.33;;;16.50;93.50;;;17.12;57.92;99181.25;4978279;28;124107;-72
2022/10/05 09:53:39;;;;;;;9.37;6.00;;;16.50;93.40;;;17.24;57.88;99178.44;4968752;28;118802;-73
2022/10/05 09:56:42;;;;;;;8.97;5.10;;;16.60;93.40;;;17.35;57.83;99170.44;4980916;28;119073;-72
2022/10/05 09:59:50;;;;;;;9.37;5.10;;;16.70;93.40;;;17.47;57.50;99164.84;4981256;28;123997;-72
2022/10/05 10:03:01;;;;;;;6.97;4.47;;;16.90;93.40;;;17.61;57.54;99165.31;4971676;28;123994;-73
2022/10/05 10:05:33;;;;;;;13.40;5.17;;;17.00;93.30;;;17.76;57.26;99158.19;4977082;28;120397;-74
2022/10/05 10:08:22;;;;;;;6.80;4.73;;;18.30;93.70;;;17.88;57.27;99152.59;4978522;28;120468;-72
2022/10/05 10:11:54;;;;;;;6.57;4.87;;;17.30;93.20;;;18.02;57.06;99148.59;4979836;28;124217;-73
2022/10/05 10:14:55;;;;;;;8.90;4.90;;;17.40;93.10;;;18.19;56.88;99150.28;4977427;28;124164;-73
2022/10/05 10:18:08;;;;;;;6.00;4.33;;;17.50;93.10;;;18.37;56.69;99146.03;4972879;28;118865;-72
2022/10/05 10:21:12;;;;;;;7.77;5.30;;;17.80;93.10;;;18.55;56.52;99132.56;4976837;28;119517;-73
2022/10/05 10:24:05;;;;;;;6.53;4.27;;;17.90;92.90;;;18.73;56.24;99133.03;4976083;28;124920;-74
2022/10/05 10:27:11;;;;;;;6.30;4.70;;;18.10;92.90;;;18.90;56.00;99129.94;4960273;28;124663;-73
2022/10/05 10:30:02;;;;;;;6.83;4.03;;;18.30;92.90;;;19.10;55.86;99133.66;4958262;28;119424;-73
2022/10/05 10:32:47;;;;;;;8.03;4.97;;;18.50;92.70;;;19.26;55.74;99125.22;4941359;28;119047;-72
2022/10/05 10:35:19;;;;;;;5.63;3.70;;;18.60;92.70;;;19.43;55.31;99118.44;4939567;28;123862;-73
2022/10/05 10:38:07;;;;;;;5.13;3.40;;;18.80;92.70;;;19.60;55.33;99117.22;4940145;28;123982;-72
2022/10/05 10:41:13;;;;;;;11.97;5.03;;;19.00;92.70;;;19.79;54.94;99108.88;4941787;28;119277;-73
2022/10/05 10:43:58;;;;;;;9.13;4.17;;;19.10;92.50;;;19.98;54.40;99108.09;4955331;28;118958;-72
2022/10/05 10:46:56;;;;;;;7.17;3.93;;;19.30;92.40;;;20.16;54.13;99105.66;4936842;28;124170;-71
2022/10/05 10:50:03;;;;;;;9.93;4.27;;;19.50;92.20;;;20.38;53.89;99104.09;4940755;28;124018;-71
2022/10/05 10:53:01;;;;;;;6.93;3.63;;;19.70;92.10;;;20.57;53.56;99103.28;4960540;28;119024;-72
2022/10/05 10:56:13;;;;;;;7.67;3.90;;;20.00;92.00;;;20.78;53.65;99090.84;4961101;28;119269;-71
2022/10/05 10:59:02;;;;;;;6.20;2.97;;;20.10;91.80;;;20.99;52.81;99079.97;4972502;28;123974;-72
2022/10/05 11:01:56;;;;;;;4.27;2.90;;;20.30;91.70;;;21.23;52.41;99083.56;4971643;28;123519;-71
2022/10/05 11:04:55;;;;;;;6.60;2.67;;;20.50;91.60;;;21.48;52.27;99075.56;4979670;28;120129;-71
2022/10/05 11:08:12;;;;;;;5.80;3.50;;;20.80;91.30;;;21.71;51.10;99069.84;4979794;28;120097;-71
2022/10/05 11:10:55;;;;;;;3.90;2.83;;;21.00;90.60;;;21.94;50.32;99069.75;4974456;28;124784;-71
2022/10/05 11:13:51;;;;;;;5.40;3.03;;;21.20;90.30;;;22.15;50.14;99074.84;4979561;28;124002;-71
2022/10/05 11:16:40;;;;;;;3.73;2.30;;;21.50;90.00;;;22.35;48.74;99070.69;4981240;28;118158;-71
2022/10/05 11:20:05;;;;;;;5.07;2.10;;;21.60;89.40;;;22.53;48.40;99058.81;4977765;28;119029;-71
2022/10/05 11:22:43;;;;;;;3.20;1.90;;;21.90;88.20;;;22.72;47.27;99053.75;4977199;28;124021;-71
2022/10/05 11:25:40;;;;;;;2.47;1.80;;;22.00;87.10;;;22.91;46.99;99052.72;4979624;28;123849;-71
2022/10/05 11:29:01;;;;;;;2.47;1.73;;;22.20;86.40;;;23.10;47.08;99048.88;4962741;28;117512;-71
2022/10/05 11:32:23;;;;;;;1.80;1.63;;;22.40;86.00;;;23.27;46.75;99041.78;4978042;28;118920;-72
2022/10/05 11:35:27;;;;;;;2.53;1.80;;;22.50;85.50;;;23.41;46.26;99034.63;4977601;28;124436;-72
2022/10/05 11:38:25;;;;;;;2.63;1.50;;;22.80;84.80;;;23.55;45.97;99029.06;4978356;28;123788;-72
2022/10/05 11:41:27;;;;;;;2.93;1.57;;;22.90;84.60;;;23.70;45.63;99036.41;4981892;28;119378;-71
2022/10/05 11:44:18;;;;;;;2.20;1.70;;;23.00;83.90;;;23.85;44.87;99030.84;4967285;28;118145;-71
2022/10/05 11:47:07;;;;;;;3.23;1.57;;;23.20;83.50;;;23.99;44.74;99030.91;4985063;28;123209;-72
2022/10/05 11:49:38;;;;;;;2.57;1.60;;;23.30;83.20;;;24.10;44.46;99028.94;4978840;28;124677;-72
2022/10/05 11:52:29;;;;;;;3.60;1.57;;;23.40;82.60;;;24.20;43.98;99025.31;4979789;28;119820;-71